Virton, Belgium
Current Conditions -  °F | °C
As of 6:50 PM on Saturday 20 Dec 2014 (Local Time) from ELLX Reporting Station
Broken Clouds Broken Clouds  
Wind Chill: 33°   Ceiling: 4500
Heat Index: 41°   Visibility: 6mi
Dew Point: 37°   Wind: 14mph
Humidity: 87%   Direction: 260°W
Pressure: 30.27"   Gusts: 25mph
Location:  49.57°N, 5.53°E
Report Text: ELLX 201750Z 26012G22KT 240V300 9999 FEW033 BKN045 05/03 Q1025 NOSIG
Loading
Personal Weather Stations






























Interactive Weather Map New forecast layout! Learn more

10-Day Weather Forecast

Advertisements
Track Severe Weather on mobile